createdAt,value
2023-01-21T00:02:36.814Z,100908.42
2023-01-21T00:05:24.442Z,100913.91
2023-01-21T00:08:18.966Z,100906.96
2023-01-21T00:11:07.686Z,100905.59
2023-01-21T00:13:55.279Z,100906.64
2023-01-21T00:16:42.778Z,100908.26
2023-01-21T00:19:30.260Z,100906.18
2023-01-21T00:22:17.853Z,100914.50
2023-01-21T00:25:05.871Z,100912.38
2023-01-21T00:27:53.369Z,100923.52
2023-01-21T00:30:41.930Z,100923.02
2023-01-21T00:33:29.846Z,100924.46
2023-01-21T00:36:22.203Z,100923.63
2023-01-21T00:39:09.806Z,100920.16
2023-01-21T00:41:57.363Z,100920.75
2023-01-21T00:44:44.837Z,100920.66
2023-01-21T00:47:32.274Z,100922.89
2023-01-21T00:50:19.858Z,100917.05
2023-01-21T00:53:07.465Z,100914.79
2023-01-21T00:55:59.146Z,100912.54
2023-01-21T00:58:46.918Z,100907.79
2023-01-21T01:01:37.938Z,100904.02
2023-01-21T01:04:25.633Z,100905.42
2023-01-21T01:07:13.175Z,100907.30
2023-01-21T01:10:00.671Z,100909.05
2023-01-21T01:12:48.120Z,100908.43
2023-01-21T01:15:35.756Z,100898.04
2023-01-21T01:18:24.099Z,100905.08
2023-01-21T01:21:12.781Z,100894.98
2023-01-21T01:24:03.450Z,100900.98
2023-01-21T01:26:51.271Z,100891.73
2023-01-21T01:29:38.825Z,100889.55
2023-01-21T01:32:26.297Z,100885.64
2023-01-21T01:35:13.870Z,100888.38
2023-01-21T01:38:07.942Z,100889.16
2023-01-21T01:40:55.543Z,100888.85
2023-01-21T01:44:01.953Z,100884.07
2023-01-21T01:46:49.459Z,100880.51
2023-01-21T01:49:37.045Z,100883.05
2023-01-21T01:52:24.551Z,100891.19
2023-01-21T01:55:12.119Z,100888.09
2023-01-21T01:57:59.567Z,100888.94
2023-01-21T02:00:47.490Z,100896.55
2023-01-21T02:03:49.521Z,100898.33
2023-01-21T02:06:37.053Z,100906.59
2023-01-21T02:09:29.718Z,100914.23
2023-01-21T02:12:18.239Z,100913.61
2023-01-21T02:15:06.338Z,100918.84
2023-01-21T02:18:16.413Z,100910.88
2023-01-21T02:21:29.992Z,100910.38
2023-01-21T02:24:26.487Z,100911.71
2023-01-21T02:27:30.143Z,100908.06
2023-01-21T02:30:27.409Z,100897.14
2023-01-21T02:33:26.445Z,100891.31
2023-01-21T02:36:49.482Z,100886.63
2023-01-21T02:39:49.360Z,100883.45
2023-01-21T02:42:55.644Z,100881.91
2023-01-21T02:45:49.829Z,100871.70
2023-01-21T02:48:40.302Z,100874.38
2023-01-21T02:51:27.755Z,100882.90
2023-01-21T02:54:16.739Z,100886.02
2023-01-21T02:57:05.595Z,100892.77
2023-01-21T02:59:53.331Z,100884.78
2023-01-21T03:03:13.512Z,100881.98
2023-01-21T03:06:20.829Z,100886.43
2023-01-21T03:09:14.572Z,100893.02
2023-01-21T03:12:09.101Z,100885.73
2023-01-21T03:15:23.406Z,100892.69
2023-01-21T03:18:26.831Z,100891.67
2023-01-21T03:21:17.043Z,100883.99
2023-01-21T03:24:04.608Z,100874.46
2023-01-21T03:26:52.609Z,100869.38
2023-01-21T03:29:42.277Z,100853.20
2023-01-21T03:32:29.978Z,100846.25
2023-01-21T03:35:24.272Z,100846.95
2023-01-21T03:38:50.551Z,100829.45
2023-01-21T03:41:38.413Z,100823.01
2023-01-21T03:44:26.295Z,100838.68
2023-01-21T03:47:16.768Z,100842.81
2023-01-21T03:50:08.904Z,100839.80
2023-01-21T03:52:56.622Z,100845.13
2023-01-21T03:55:44.090Z,100842.86
2023-01-21T03:58:31.858Z,100837.77
2023-01-21T04:01:19.492Z,100851.98
2023-01-21T04:04:07.343Z,100860.39
2023-01-21T04:06:54.977Z,100878.02
2023-01-21T04:09:42.520Z,100901.73
2023-01-21T04:12:29.922Z,100910.65
2023-01-21T04:15:17.332Z,100911.67
2023-01-21T04:18:04.865Z,100899.14
2023-01-21T04:20:52.360Z,100897.21
2023-01-21T04:23:40.553Z,100881.58
2023-01-21T04:26:28.098Z,100877.73
2023-01-21T04:29:15.530Z,100891.02
2023-01-21T04:32:03.368Z,100895.85
2023-01-21T04:34:50.887Z,100903.29
2023-01-21T04:37:38.505Z,100912.73
2023-01-21T04:40:26.111Z,100915.36
2023-01-21T04:43:13.587Z,100917.63
2023-01-21T04:46:01.222Z,100911.65
2023-01-21T04:48:48.937Z,100913.77
2023-01-21T04:51:36.644Z,100923.80
2023-01-21T04:54:24.464Z,100924.75
2023-01-21T04:57:12.662Z,100927.13
2023-01-21T05:00:00.187Z,100921.65
2023-01-21T05:02:47.825Z,100932.27
2023-01-21T05:05:35.409Z,100922.79
2023-01-21T05:08:22.907Z,100919.27
2023-01-21T05:11:11.126Z,100917.42
2023-01-21T05:13:58.706Z,100914.66
2023-01-21T05:16:46.246Z,100911.79
2023-01-21T05:19:33.697Z,100893.55
2023-01-21T05:22:21.145Z,100908.55
2023-01-21T05:25:08.822Z,100896.43
2023-01-21T05:27:56.447Z,100907.93
2023-01-21T05:30:44.717Z,100896.99
2023-01-21T05:33:32.891Z,100915.30
2023-01-21T05:36:20.519Z,100912.65
2023-01-21T05:39:08.063Z,100921.55
2023-01-21T05:41:55.550Z,100931.06
2023-01-21T05:44:43.134Z,100921.67
2023-01-21T05:47:30.566Z,100923.20
2023-01-21T05:50:18.419Z,100925.11
2023-01-21T05:53:06.355Z,100923.96
2023-01-21T05:55:56.952Z,100917.39
2023-01-21T05:58:44.487Z,100922.73
2023-01-21T06:01:32.047Z,100910.74
2023-01-21T06:04:19.596Z,100916.92
2023-01-21T06:07:07.068Z,100912.38
2023-01-21T06:09:54.567Z,100914.70
2023-01-21T06:12:42.079Z,100916.39
2023-01-21T06:15:30.085Z,100920.58
2023-01-21T06:18:17.778Z,100927.40
2023-01-21T06:21:05.526Z,100931.91
2023-01-21T06:23:52.934Z,100934.11
2023-01-21T06:26:40.433Z,100944.55
2023-01-21T06:29:27.897Z,100963.94
2023-01-21T06:32:15.490Z,100961.22
2023-01-21T06:35:04.241Z,100972.48
2023-01-21T06:37:51.771Z,100971.16
2023-01-21T06:40:39.313Z,100964.38
2023-01-21T06:43:26.821Z,100965.48
2023-01-21T06:46:14.463Z,100975.58
2023-01-21T06:49:02.440Z,100980.92
2023-01-21T06:51:51.919Z,100975.75
2023-01-21T06:54:39.419Z,100977.77
2023-01-21T06:57:26.866Z,100969.35
2023-01-21T07:00:14.767Z,100982.14
2023-01-21T07:03:02.849Z,100971.17
2023-01-21T07:05:50.404Z,100987.40
2023-01-21T07:08:38.200Z,100983.89
2023-01-21T07:11:25.845Z,100973.39
2023-01-21T07:14:14.015Z,100974.02
2023-01-21T07:17:01.556Z,100970.58
2023-01-21T07:19:49.174Z,100966.70
2023-01-21T07:22:36.982Z,100959.53
2023-01-21T07:25:24.652Z,100953.85
2023-01-21T07:28:12.598Z,100937.58
2023-01-21T07:31:00.747Z,100946.48
2023-01-21T07:33:48.252Z,100986.04
2023-01-21T07:36:35.834Z,101008.87
2023-01-21T07:39:23.423Z,101020.59
2023-01-21T07:42:11.435Z,101020.17
2023-01-21T07:44:59.703Z,101033.61
2023-01-21T07:47:47.324Z,101040.39
2023-01-21T07:50:35.397Z,101041.55
2023-01-21T07:53:23.093Z,101043.84
2023-01-21T07:56:10.767Z,101052.75
2023-01-21T07:58:58.690Z,101058.98
2023-01-21T10:05:53.488Z,101085.70
2023-01-21T10:09:05.763Z,101096.88
2023-01-21T10:12:14.888Z,101102.96
2023-01-21T10:15:17.818Z,101094.15
2023-01-21T10:18:11.311Z,101111.09
2023-01-21T10:21:05.055Z,101111.81
2023-01-21T10:23:54.864Z,101113.94
2023-01-21T10:26:42.936Z,101115.40
2023-01-21T10:29:30.319Z,101110.89
2023-01-21T10:32:20.875Z,101102.97
2023-01-21T10:35:16.392Z,101102.77
2023-01-21T10:38:11.522Z,101094.63
2023-01-21T10:41:18.529Z,101093.76
2023-01-21T10:44:34.835Z,101099.04
2023-01-21T10:47:27.989Z,101102.97
2023-01-21T10:50:33.379Z,101096.36
2023-01-21T10:53:26.304Z,101098.33
2023-01-21T10:56:55.519Z,101101.68
2023-01-21T10:59:42.946Z,101108.86
2023-01-21T11:02:31.921Z,101123.54
2023-01-21T11:05:19.568Z,101118.89
2023-01-21T11:08:07.105Z,101119.77
2023-01-21T11:10:57.894Z,101121.99
2023-01-21T11:13:45.392Z,101127.77
2023-01-21T11:16:49.040Z,101129.34
2023-01-21T11:19:36.563Z,101140.45
2023-01-21T11:22:25.197Z,101140.49
2023-01-21T11:25:36.437Z,101147.59
2023-01-21T11:28:26.413Z,101149.21
2023-01-21T11:31:14.904Z,101163.02
2023-01-21T11:34:19.240Z,101158.42
2023-01-21T11:37:07.296Z,101157.27
2023-01-21T11:39:59.562Z,101171.62
2023-01-21T11:42:48.354Z,101166.92
2023-01-21T11:45:36.890Z,101165.14
2023-01-21T11:48:24.423Z,101162.86
2023-01-21T11:51:11.948Z,101152.02
2023-01-21T11:54:12.026Z,101146.59
2023-01-21T11:57:02.653Z,101144.67
2023-01-21T11:59:50.228Z,101141.38
2023-01-21T12:02:43.774Z,101143.52
2023-01-21T12:05:33.301Z,101152.61
2023-01-21T12:08:25.445Z,101153.31
2023-01-21T12:11:13.039Z,101153.26
2023-01-21T12:14:25.107Z,101149.35
2023-01-21T12:17:39.776Z,101154.98
2023-01-21T12:20:35.613Z,101166.95
2023-01-21T12:23:29.800Z,101187.39
2023-01-21T12:26:34.689Z,101192.09
2023-01-21T12:29:34.315Z,101193.23
2023-01-21T12:32:42.857Z,101211.52
2023-01-21T12:35:35.590Z,101228.98
2023-01-21T12:38:30.345Z,101228.29
2023-01-21T12:41:26.975Z,101228.02
2023-01-21T12:44:14.367Z,101230.41
2023-01-21T12:47:10.548Z,101238.19
2023-01-21T12:50:01.182Z,101249.03
2023-01-21T12:53:10.372Z,101257.13
2023-01-21T12:56:28.779Z,101264.75
2023-01-21T12:59:33.274Z,101273.34
2023-01-21T13:02:24.768Z,101276.02
2023-01-21T13:05:31.444Z,101276.05
2023-01-21T13:08:28.500Z,101271.04
2023-01-21T13:11:37.126Z,101274.06
2023-01-21T13:14:43.207Z,101280.35
2023-01-21T13:17:34.412Z,101284.92
2023-01-21T13:20:22.319Z,101295.15
2023-01-21T13:23:29.409Z,101301.23
2023-01-21T13:26:45.132Z,101308.30
2023-01-21T13:29:41.675Z,101319.10
2023-01-21T13:32:35.213Z,101319.85
2023-01-21T13:35:33.898Z,101327.75
2023-01-21T13:38:31.776Z,101337.77
2023-01-21T13:41:57.248Z,101341.79
2023-01-21T13:44:48.109Z,101349.35
2023-01-21T13:47:50.925Z,101348.55
2023-01-21T13:51:12.646Z,101354.91
2023-01-21T13:54:21.755Z,101357.09
2023-01-21T13:57:35.704Z,101361.57
2023-01-21T14:01:05.001Z,101367.27
2023-01-21T14:03:52.643Z,101368.37
2023-01-21T16:08:41.432Z,101529.48
2023-01-21T16:12:07.497Z,101542.64
2023-01-21T16:15:01.176Z,101545.05
2023-01-21T16:18:07.843Z,101546.16
2023-01-21T16:20:55.986Z,101547.81
2023-01-21T16:23:43.784Z,101551.33
2023-01-21T16:26:33.080Z,101557.25
2023-01-21T16:29:20.723Z,101563.67
2023-01-21T16:32:16.127Z,101565.80
2023-01-21T16:35:03.898Z,101563.02
2023-01-21T16:37:54.367Z,101570.64
2023-01-21T16:40:41.806Z,101567.52
2023-01-21T16:43:29.284Z,101571.61
2023-01-21T16:46:40.354Z,101568.63
2023-01-21T16:49:27.872Z,101570.29
2023-01-21T16:52:19.995Z,101573.55
2023-01-21T16:55:17.937Z,101577.64
2023-01-21T16:58:17.120Z,101580.54
2023-01-21T17:01:09.165Z,101588.76
2023-01-21T17:03:56.608Z,101592.41
2023-01-21T17:06:44.600Z,101591.38
2023-01-21T17:09:35.376Z,101591.95
2023-01-21T17:12:24.222Z,101594.33
2023-01-21T17:15:41.386Z,101602.02
2023-01-21T17:18:40.484Z,101600.45
2023-01-21T17:21:31.991Z,101610.02
2023-01-21T17:24:21.443Z,101614.58
2023-01-21T17:27:10.366Z,101617.33
2023-01-21T17:30:26.979Z,101622.02
2023-01-21T17:33:27.562Z,101620.79
2023-01-21T17:36:15.968Z,101623.65
2023-01-21T17:39:04.192Z,101625.27
2023-01-21T17:41:51.779Z,101629.50
2023-01-21T17:44:39.654Z,101633.92
2023-01-21T17:47:52.419Z,101636.83
2023-01-21T17:50:46.278Z,101641.30
2023-01-21T17:53:34.252Z,101644.11
2023-01-21T17:56:41.766Z,101647.71
2023-01-21T17:59:35.282Z,101650.11
2023-01-21T18:02:24.785Z,101642.48
2023-01-21T18:05:12.678Z,101656.51
2023-01-21T18:08:00.227Z,101658.23
2023-01-21T18:10:48.094Z,101658.98
2023-01-21T18:13:35.867Z,101661.77
2023-01-21T18:16:23.438Z,101663.77
2023-01-21T18:19:33.962Z,101663.18
2023-01-21T18:22:27.045Z,101666.11
2023-01-21T18:25:15.584Z,101670.70
2023-01-21T18:28:03.727Z,101673.00
2023-01-21T18:30:55.273Z,101676.04
2023-01-21T18:33:47.954Z,101677.09
2023-01-21T18:36:35.559Z,101681.17
2023-01-21T18:39:23.028Z,101685.19
2023-01-21T18:42:14.361Z,101692.27
2023-01-21T18:45:02.046Z,101695.92
2023-01-21T18:47:49.895Z,101700.80
2023-01-21T18:50:37.428Z,101700.84
2023-01-21T18:53:25.730Z,101704.25
2023-01-21T18:56:13.836Z,101703.67
2023-01-21T18:59:01.374Z,101698.16
2023-01-21T19:01:48.895Z,101697.29
2023-01-21T19:04:36.706Z,101700.49
2023-01-21T19:07:25.498Z,101704.73
2023-01-21T19:10:17.803Z,101706.33
2023-01-21T19:13:06.007Z,101714.13
2023-01-21T19:15:53.844Z,101719.57
2023-01-21T19:18:41.887Z,101721.13
2023-01-21T19:21:29.894Z,101720.49
2023-01-21T19:24:17.552Z,101720.22
2023-01-21T19:27:06.590Z,101726.92
2023-01-21T19:29:54.600Z,101729.96
2023-01-21T19:32:49.401Z,101731.02
2023-01-21T19:35:38.845Z,101737.61
2023-01-21T19:38:26.829Z,101742.89
2023-01-21T19:41:14.780Z,101742.52
2023-01-21T19:44:02.513Z,101745.64
2023-01-21T19:46:50.264Z,101743.01
2023-01-21T19:49:38.943Z,101748.43
2023-01-21T19:52:26.781Z,101751.34
2023-01-21T19:55:22.441Z,101750.45
2023-01-21T19:58:23.395Z,101756.87
2023-01-21T22:03:02.559Z,101865.63
2023-01-21T22:05:53.825Z,101866.72
2023-01-21T22:08:42.120Z,101870.18
2023-01-21T22:11:29.972Z,101869.10
2023-01-21T22:14:18.051Z,101867.90
2023-01-21T22:17:07.873Z,101864.23
2023-01-21T22:19:55.549Z,101870.67
2023-01-21T22:22:43.268Z,101876.89
2023-01-21T22:25:30.843Z,101881.21
2023-01-21T22:28:18.445Z,101885.90
2023-01-21T22:31:07.641Z,101887.09
2023-01-21T22:33:55.802Z,101889.30
2023-01-21T22:36:47.142Z,101889.64
2023-01-21T22:39:34.710Z,101886.30
2023-01-21T22:42:22.289Z,101892.81
2023-01-21T22:45:10.299Z,101889.12
2023-01-21T22:47:57.798Z,101893.52
2023-01-21T22:50:46.191Z,101887.70
2023-01-21T22:53:33.878Z,101889.30
2023-01-21T22:56:31.412Z,101888.77
2023-01-21T22:59:23.076Z,101897.08
2023-01-21T23:02:10.625Z,101895.23
2023-01-21T23:04:58.135Z,101897.75
2023-01-21T23:07:45.783Z,101901.39
2023-01-21T23:10:33.353Z,101905.98
2023-01-21T23:13:20.931Z,101911.48
2023-01-21T23:16:09.747Z,101913.85
2023-01-21T23:18:57.845Z,101919.42
2023-01-21T23:21:45.308Z,101925.01
2023-01-21T23:24:32.904Z,101927.44
2023-01-21T23:27:20.536Z,101928.98
2023-01-21T23:30:08.576Z,101933.73
2023-01-21T23:32:56.158Z,101932.64
2023-01-21T23:35:43.573Z,101938.30
2023-01-21T23:38:31.154Z,101940.90
2023-01-21T23:41:20.087Z,101941.42
2023-01-21T23:44:09.866Z,101944.39
2023-01-21T23:46:58.155Z,101950.20
2023-01-21T23:49:45.576Z,101953.27
2023-01-21T23:52:33.120Z,101955.74
2023-01-21T23:55:20.717Z,101954.64
2023-01-21T23:58:08.202Z,101955.75
